Time;durP1;ratioP1;P1;durP2;ratioP2;P2;SDS_P1;SDS_P2;PMS_P1;PMS_P2;Temp;Humidity;BMP_temperature;BMP_pressure;BME280_temperature;BME280_humidity;BME280_pressure;Samples;Min_cycle;Max_cycle;Signal;HPM_P1;HPM_P2
2023/05/01 00:01:14;;;;;;;10.30;9.30;;;7.40;99.90;;;;;;4945387;28;20469;-59
2023/05/01 00:03:42;;;;;;;11.03;8.60;;;7.50;99.90;;;;;;4953812;28;20500;-58
2023/05/01 00:06:10;;;;;;;10.27;9.33;;;7.50;99.90;;;;;;4930496;28;21247;-58
2023/05/01 00:08:38;;;;;;;8.77;7.87;;;7.60;99.90;;;;;;4946218;28;21016;-58
2023/05/01 00:11:08;;;;;;;9.10;8.20;;;7.70;99.90;;;;;;4938576;28;20474;-58
2023/05/01 00:13:37;;;;;;;8.80;8.00;;;7.70;99.90;;;;;;4939031;28;20501;-58
2023/05/01 00:16:09;;;;;;;9.30;8.50;;;7.80;99.90;;;;;;4943676;28;20503;-58
2023/05/01 00:18:38;;;;;;;8.73;7.83;;;7.80;99.90;;;;;;4974218;28;20478;-58
2023/05/01 00:21:06;;;;;;;9.43;8.40;;;7.80;99.90;;;;;;4963718;28;21002;-61
2023/05/01 00:23:34;;;;;;;9.67;8.33;;;7.80;99.90;;;;;;4947683;28;20493;-60
2023/05/01 00:26:02;;;;;;;10.03;8.50;;;7.80;99.90;;;;;;4950680;28;20504;-60
2023/05/01 00:28:30;;;;;;;8.30;7.40;;;7.80;99.90;;;;;;4941454;28;20473;-60
2023/05/01 00:30:58;;;;;;;11.67;8.53;;;7.80;99.90;;;;;;4934132;28;21132;-61
2023/05/01 00:33:27;;;;;;;9.20;7.23;;;7.80;99.90;;;;;;4939399;28;20662;-61
2023/05/01 00:35:55;;;;;;;9.77;7.37;;;7.80;99.90;;;;;;4941762;28;20543;-61
2023/05/01 00:38:24;;;;;;;7.50;6.73;;;7.70;99.90;;;;;;4938873;28;20477;-60
2023/05/01 00:40:52;;;;;;;7.50;6.70;;;7.70;99.90;;;;;;4936571;28;20466;-61
2023/05/01 00:43:20;;;;;;;8.80;7.90;;;7.70;99.90;;;;;;4958574;28;20628;-62
2023/05/01 00:45:48;;;;;;;8.03;7.27;;;7.70;99.90;;;;;;4954275;28;20493;-61
2023/05/01 00:48:16;;;;;;;7.80;7.00;;;7.70;99.90;;;;;;4959286;28;20484;-60
2023/05/01 00:50:46;;;;;;;8.33;7.13;;;7.70;99.90;;;;;;4958650;28;20492;-61
2023/05/01 00:53:14;;;;;;;8.93;7.47;;;7.70;99.90;;;;;;4956731;28;20471;-61
2023/05/01 00:55:42;;;;;;;8.60;6.80;;;7.70;99.90;;;;;;4944405;28;20493;-61
2023/05/01 00:58:11;;;;;;;8.47;7.17;;;7.70;99.90;;;;;;4947164;28;20478;-60
2023/05/01 01:00:39;;;;;;;7.83;7.03;;;7.60;99.90;;;;;;4940841;28;22261;-60
2023/05/01 01:03:07;;;;;;;7.53;6.83;;;7.60;99.90;;;;;;4935138;28;20508;-60
2023/05/01 01:05:41;;;;;;;8.57;7.50;;;7.60;99.90;;;;;;4949859;28;20497;-61
2023/05/01 01:08:20;;;;;;;9.00;7.00;;;7.60;99.90;;;;;;4957370;28;20523;-60
2023/05/01 01:10:54;;;;;;;7.60;6.93;;;7.60;99.90;;;;;;4949677;28;20775;-61
2023/05/01 01:13:29;;;;;;;8.80;7.07;;;7.60;99.90;;;;;;4952168;28;20770;-61
2023/05/01 01:16:04;;;;;;;7.70;6.50;;;7.60;99.90;;;;;;4951269;28;20500;-60
2023/05/01 01:18:37;;;;;;;9.97;7.07;;;7.50;99.90;;;;;;4950946;28;20484;-61
2023/05/01 01:21:12;;;;;;;8.50;6.70;;;7.50;99.90;;;;;;4966422;28;20564;-61
2023/05/01 01:24:03;;;;;;;13.53;7.60;;;7.50;99.90;;;;;;4955678;28;20507;-59
2023/05/01 01:26:52;;;;;;;7.50;6.77;;;7.40;99.90;;;;;;4954583;28;20504;-59
2023/05/01 01:29:43;;;;;;;8.30;7.33;;;7.40;99.90;;;;;;4951135;28;20479;-59
2023/05/01 01:32:31;;;;;;;11.47;6.70;;;7.30;99.90;;;;;;4948946;28;20480;-59
2023/05/01 01:35:04;;;;;;;7.30;6.60;;;7.30;99.90;;;;;;4945563;28;20497;-59
2023/05/01 01:37:40;;;;;;;7.10;6.50;;;7.30;99.90;;;;;;4941532;28;21094;-59
2023/05/01 01:40:13;;;;;;;7.00;6.40;;;7.30;99.90;;;;;;4942307;28;20472;-59
2023/05/01 01:42:46;;;;;;;7.67;6.60;;;7.30;99.90;;;;;;4934162;28;20530;-59
2023/05/01 01:45:21;;;;;;;7.10;6.37;;;7.30;99.90;;;;;;4943725;28;20522;-59
2023/05/01 01:47:51;;;;;;;8.27;6.87;;;7.30;99.90;;;;;;4963352;28;20476;-59
2023/05/01 01:50:24;;;;;;;7.80;7.00;;;7.20;99.90;;;;;;4963428;28;20472;-59
2023/05/01 01:52:55;;;;;;;7.80;6.17;;;7.20;99.90;;;;;;4952860;28;20861;-59
2023/05/01 01:55:27;;;;;;;6.70;6.03;;;7.20;99.90;;;;;;4955039;28;20505;-59
2023/05/01 01:57:58;;;;;;;10.63;6.13;;;7.20;99.90;;;;;;4950978;28;20476;-60
2023/05/01 02:00:28;;;;;;;7.03;6.23;;;7.20;99.90;;;;;;4961519;28;20469;-60
2023/05/01 02:02:58;;;;;;;6.23;5.70;;;7.10;99.90;;;;;;4973712;28;20968;-60
2023/05/01 02:05:29;;;;;;;6.63;5.70;;;7.10;99.90;;;;;;4943399;28;20500;-60
2023/05/01 02:07:58;;;;;;;8.00;6.03;;;7.10;99.90;;;;;;4927237;28;20492;-60
2023/05/01 02:10:29;;;;;;;7.20;6.60;;;7.10;99.90;;;;;;4940527;28;20954;-60
2023/05/01 02:12:58;;;;;;;8.87;7.60;;;7.10;99.90;;;;;;4943899;28;20473;-60
2023/05/01 02:15:28;;;;;;;7.23;6.43;;;7.10;99.90;;;;;;4949325;28;22026;-60
2023/05/01 02:17:58;;;;;;;6.57;5.87;;;7.10;99.90;;;;;;4941391;28;21695;-59
2023/05/01 02:20:28;;;;;;;6.83;5.70;;;7.10;99.90;;;;;;4932542;28;20974;-61
2023/05/01 02:22:57;;;;;;;7.13;6.43;;;7.00;99.90;;;;;;4938558;28;20474;-59
2023/05/01 02:25:26;;;;;;;8.17;6.03;;;7.10;99.90;;;;;;4947631;28;20486;-60
2023/05/01 02:27:59;;;;;;;7.27;6.57;;;7.00;99.90;;;;;;4957504;28;20477;-59
2023/05/01 02:30:27;;;;;;;10.13;6.13;;;7.00;99.90;;;;;;4953554;28;20477;-60
2023/05/01 02:32:56;;;;;;;6.93;5.87;;;7.00;99.90;;;;;;4949232;28;21035;-59
2023/05/01 02:35:24;;;;;;;7.60;6.90;;;7.00;99.90;;;;;;4955431;28;20502;-60
2023/05/01 02:37:53;;;;;;;7.93;6.57;;;7.00;99.90;;;;;;4953199;28;20480;-60
2023/05/01 02:40:21;;;;;;;6.10;5.50;;;6.90;99.90;;;;;;4946413;28;20731;-59
2023/05/01 02:42:51;;;;;;;6.17;5.57;;;6.90;99.90;;;;;;4954188;28;20984;-59
2023/05/01 02:45:22;;;;;;;6.00;5.50;;;6.90;99.90;;;;;;4944747;28;20524;-59
2023/05/01 02:47:51;;;;;;;6.27;5.77;;;6.90;99.90;;;;;;4952812;28;20492;-59
2023/05/01 02:50:21;;;;;;;7.83;5.80;;;6.90;99.90;;;;;;4965098;28;21051;-59
2023/05/01 02:52:50;;;;;;;8.80;5.87;;;6.80;99.90;;;;;;4935455;28;20933;-60
2023/05/01 02:55:19;;;;;;;9.13;6.03;;;6.80;99.90;;;;;;4932029;28;20500;-60
2023/05/01 02:57:50;;;;;;;7.40;5.80;;;6.80;99.90;;;;;;4943109;28;20476;-60
2023/05/01 03:00:19;;;;;;;6.60;5.70;;;6.80;99.90;;;;;;4940936;28;21210;-59
2023/05/01 03:02:47;;;;;;;6.97;5.50;;;6.70;99.90;;;;;;4941369;28;21260;-59
2023/05/01 03:05:16;;;;;;;6.50;5.73;;;6.80;99.90;;;;;;4938399;28;20503;-59
2023/05/01 03:07:44;;;;;;;6.73;5.70;;;6.70;99.90;;;;;;4938516;28;20488;-60
2023/05/01 03:10:12;;;;;;;6.43;5.47;;;6.70;99.90;;;;;;4970864;28;20488;-59
2023/05/01 03:12:41;;;;;;;6.53;5.93;;;6.70;99.90;;;;;;4947931;28;20791;-60
2023/05/01 03:15:10;;;;;;;8.50;6.00;;;6.70;99.90;;;;;;4938911;28;20489;-60
2023/05/01 03:17:38;;;;;;;6.93;6.10;;;6.70;99.90;;;;;;4967593;28;20484;-59
2023/05/01 03:20:08;;;;;;;6.97;5.90;;;6.70;99.90;;;;;;4951275;28;20468;-60
2023/05/01 03:22:36;;;;;;;6.70;5.50;;;6.70;99.90;;;;;;4946967;28;20712;-60
2023/05/01 03:25:04;;;;;;;6.00;5.40;;;6.70;99.90;;;;;;4945292;28;21026;-60
2023/05/01 03:27:32;;;;;;;5.87;5.27;;;6.70;99.90;;;;;;4940633;28;20473;-60
2023/05/01 03:30:03;;;;;;;6.40;5.50;;;6.70;99.90;;;;;;4951074;28;20483;-60
2023/05/01 03:32:31;;;;;;;6.37;5.77;;;6.60;99.90;;;;;;4954528;28;20482;-60
2023/05/01 03:34:59;;;;;;;6.90;5.83;;;6.60;99.90;;;;;;4955536;28;20522;-59
2023/05/01 03:37:28;;;;;;;6.50;5.47;;;6.60;99.90;;;;;;4954828;28;20480;-60
2023/05/01 03:39:56;;;;;;;6.33;5.70;;;6.60;99.90;;;;;;4953388;28;20573;-59
2023/05/01 03:42:24;;;;;;;6.40;5.80;;;6.60;99.90;;;;;;4960889;28;20496;-59
2023/05/01 03:44:52;;;;;;;7.07;5.70;;;6.60;99.90;;;;;;4952641;28;21044;-59
2023/05/01 03:47:22;;;;;;;8.30;5.40;;;6.50;99.90;;;;;;4962253;28;20918;-59
2023/05/01 03:49:50;;;;;;;5.63;5.13;;;6.60;99.90;;;;;;4964247;28;20994;-59
2023/05/01 03:52:18;;;;;;;6.67;5.30;;;6.60;99.90;;;;;;4955260;28;21017;-59
2023/05/01 03:54:46;;;;;;;8.90;5.90;;;6.60;99.90;;;;;;4939930;28;21834;-59
2023/05/01 03:57:14;;;;;;;9.70;6.50;;;6.50;99.90;;;;;;4939975;28;20688;-59
2023/05/01 03:59:43;;;;;;;7.40;6.00;;;6.60;99.90;;;;;;4939358;28;22569;-59
2023/05/01 04:02:11;;;;;;;7.70;5.80;;;6.60;99.90;;;;;;4937695;28;20569;-60
2023/05/01 04:04:41;;;;;;;6.13;5.40;;;6.60;99.90;;;;;;4944719;28;20937;-59
2023/05/01 04:07:09;;;;;;;7.00;5.50;;;6.60;99.90;;;;;;4953295;28;20511;-59
2023/05/01 04:09:36;;;;;;;6.57;5.70;;;6.60;99.90;;;;;;4936069;28;20473;-60
2023/05/01 04:12:05;;;;;;;6.27;5.53;;;6.60;99.90;;;;;;4934231;28;20482;-59
2023/05/01 04:14:33;;;;;;;6.93;5.57;;;6.60;99.90;;;;;;4940034;28;21798;-59
2023/05/01 04:17:01;;;;;;;8.73;5.80;;;6.60;99.90;;;;;;4943098;28;20503;-60
2023/05/01 04:19:28;;;;;;;8.10;6.20;;;6.70;99.90;;;;;;4944428;28;20507;-59
2023/05/01 04:21:58;;;;;;;9.20;5.67;;;6.60;99.90;;;;;;4970147;28;20474;-59
2023/05/01 04:24:26;;;;;;;6.03;5.40;;;6.70;99.90;;;;;;4956098;28;20606;-60
2023/05/01 04:26:54;;;;;;;9.17;5.50;;;6.70;99.90;;;;;;4950380;28;20504;-59
2023/05/01 04:29:22;;;;;;;6.77;5.37;;;6.80;99.90;;;;;;4947077;28;20484;-59
2023/05/01 04:31:50;;;;;;;8.00;6.03;;;6.80;99.90;;;;;;4947527;28;21694;-59
2023/05/01 04:34:18;;;;;;;6.53;5.57;;;6.80;99.90;;;;;;4949286;28;20991;-59
2023/05/01 04:36:46;;;;;;;5.93;5.07;;;6.80;99.90;;;;;;4957111;28;20499;-59
2023/05/01 04:39:16;;;;;;;5.67;5.10;;;6.90;99.90;;;;;;4960941;28;20465;-59
2023/05/01 04:41:44;;;;;;;8.33;5.30;;;6.90;99.90;;;;;;4963711;28;20929;-60
2023/05/01 04:44:12;;;;;;;6.37;5.63;;;6.90;99.90;;;;;;4957296;28;20469;-60
2023/05/01 04:46:40;;;;;;;10.00;5.60;;;6.90;99.90;;;;;;4959372;28;20489;-60
2023/05/01 04:49:08;;;;;;;9.03;5.50;;;7.00;99.90;;;;;;4957336;28;20986;-59
2023/05/01 04:51:36;;;;;;;6.87;5.43;;;7.00;99.90;;;;;;4950525;28;20481;-60
2023/05/01 04:54:04;;;;;;;7.93;5.40;;;7.00;99.90;;;;;;4949179;28;20481;-59
2023/05/01 04:56:33;;;;;;;5.67;5.10;;;7.00;99.90;;;;;;4941466;28;20512;-59
2023/05/01 04:59:02;;;;;;;7.40;5.23;;;7.10;99.90;;;;;;4934194;28;20481;-60
2023/05/01 05:01:30;;;;;;;7.50;5.70;;;7.10;99.90;;;;;;4935509;28;20480;-59
2023/05/01 05:03:59;;;;;;;7.97;4.70;;;7.10;99.90;;;;;;4951283;28;20477;-60
2023/05/01 05:06:28;;;;;;;7.27;5.33;;;7.10;99.90;;;;;;4955874;28;20576;-60
2023/05/01 05:08:56;;;;;;;6.10;5.00;;;7.20;99.90;;;;;;4942802;28;20483;-59
2023/05/01 05:11:25;;;;;;;5.60;4.80;;;7.30;99.90;;;;;;4942813;28;20473;-59
2023/05/01 05:13:54;;;;;;;5.23;4.60;;;7.40;99.90;;;;;;4951916;28;20477;-59
2023/05/01 05:16:22;;;;;;;5.87;4.60;;;7.40;99.90;;;;;;4935602;28;20519;-60
2023/05/01 05:18:50;;;;;;;6.33;5.13;;;7.50;99.90;;;;;;4943342;28;20481;-59
2023/05/01 05:21:21;;;;;;;5.87;5.30;;;7.60;99.90;;;;;;4945933;28;20477;-59
2023/05/01 05:23:49;;;;;;;5.90;4.47;;;7.60;99.90;;;;;;4957983;28;20477;-59
2023/05/01 05:26:18;;;;;;;7.27;5.27;;;7.70;99.90;;;;;;4947816;28;20943;-60
2023/05/01 05:28:46;;;;;;;5.37;4.87;;;7.80;99.90;;;;;;4941305;28;20473;-60
2023/05/01 05:31:16;;;;;;;7.00;5.10;;;7.80;99.90;;;;;;4934121;28;20491;-61
2023/05/01 05:33:44;;;;;;;6.90;4.83;;;7.80;99.90;;;;;;4938598;28;21537;-60
2023/05/01 05:36:12;;;;;;;5.63;5.13;;;7.80;99.90;;;;;;4939210;28;21050;-60
2023/05/01 05:38:40;;;;;;;7.43;5.13;;;7.80;99.90;;;;;;4948447;28;20473;-61
2023/05/01 05:41:08;;;;;;;5.20;4.70;;;7.80;99.90;;;;;;4940882;28;20480;-60
2023/05/01 05:43:36;;;;;;;6.87;5.03;;;7.80;99.90;;;;;;4938500;28;20473;-60
2023/05/01 05:46:04;;;;;;;5.10;4.60;;;7.90;99.90;;;;;;4939183;28;21111;-60
2023/05/01 05:48:34;;;;;;;5.07;4.57;;;7.90;99.90;;;;;;4942061;28;20487;-60
2023/05/01 05:51:02;;;;;;;5.17;4.50;;;8.00;99.90;;;;;;4941122;28;20484;-60
2023/05/01 05:53:30;;;;;;;5.33;4.50;;;8.00;99.90;;;;;;4945503;28;20608;-60
2023/05/01 05:55:58;;;;;;;6.17;5.07;;;8.00;99.90;;;;;;4947334;28;20883;-60
2023/05/01 05:58:26;;;;;;;5.50;4.50;;;8.00;99.90;;;;;;4959233;28;20465;-60
2023/05/01 06:00:55;;;;;;;5.30;4.80;;;8.10;99.90;;;;;;4956649;28;22211;-60
2023/05/01 06:03:23;;;;;;;7.00;4.80;;;8.10;99.90;;;;;;4957962;28;20982;-60
2023/05/01 06:05:53;;;;;;;6.37;5.10;;;8.20;99.90;;;;;;4954150;28;21563;-60
2023/05/01 06:08:21;;;;;;;6.53;4.83;;;8.20;99.90;;;;;;4958952;28;20484;-60
2023/05/01 06:10:49;;;;;;;6.23;4.50;;;8.30;99.90;;;;;;4953116;28;20573;-60
2023/05/01 06:13:17;;;;;;;5.37;4.73;;;8.40;99.90;;;;;;4957277;28;20469;-60
2023/05/01 06:15:45;;;;;;;5.90;4.73;;;8.50;99.90;;;;;;4945137;28;20508;-60
2023/05/01 06:18:13;;;;;;;4.70;4.30;;;8.50;99.90;;;;;;4950710;28;20472;-59
2023/05/01 06:20:41;;;;;;;6.17;5.20;;;8.60;99.90;;;;;;4970530;28;20469;-60
2023/05/01 06:23:12;;;;;;;6.37;4.70;;;8.70;99.90;;;;;;4976610;28;20583;-59
2023/05/01 06:25:40;;;;;;;5.87;4.40;;;8.80;99.90;;;;;;4957620;28;20485;-60
2023/05/01 06:28:08;;;;;;;4.80;4.40;;;8.80;99.90;;;;;;4965610;28;21122;-59
2023/05/01 06:30:36;;;;;;;6.63;4.80;;;8.90;99.90;;;;;;4963066;28;20484;-60
2023/05/01 06:33:04;;;;;;;7.07;4.60;;;8.90;99.90;;;;;;4960860;28;20492;-61
2023/05/01 06:35:32;;;;;;;4.70;3.93;;;9.00;99.90;;;;;;4962657;28;20931;-63
2023/05/01 06:38:01;;;;;;;5.30;4.80;;;9.10;99.90;;;;;;4955938;28;20473;-61
2023/05/01 06:40:33;;;;;;;4.87;4.37;;;9.20;99.90;;;;;;4950884;28;20497;-61
2023/05/01 06:43:01;;;;;;;6.43;4.80;;;9.20;99.90;;;;;;4938956;28;20826;-61
2023/05/01 06:45:29;;;;;;;4.70;4.30;;;9.30;99.90;;;;;;4938126;28;20497;-58
2023/05/01 06:47:57;;;;;;;5.77;4.70;;;9.30;99.90;;;;;;4947973;28;20917;-59
2023/05/01 06:50:27;;;;;;;5.10;4.60;;;9.40;99.90;;;;;;4958355;28;20477;-59
2023/05/01 06:52:55;;;;;;;5.90;4.17;;;9.50;99.90;;;;;;4964138;28;20476;-60
2023/05/01 06:55:23;;;;;;;4.70;4.20;;;9.60;99.90;;;;;;4945863;28;21018;-59
2023/05/01 06:57:52;;;;;;;7.17;4.57;;;9.70;99.90;;;;;;4937417;28;20480;-59
2023/05/01 07:00:20;;;;;;;5.83;4.23;;;9.80;99.90;;;;;;4928885;28;20911;-59
2023/05/01 07:02:48;;;;;;;5.53;4.23;;;9.90;99.90;;;;;;4945499;28;20481;-60
2023/05/01 07:05:17;;;;;;;4.53;4.13;;;9.90;99.90;;;;;;4934742;28;20979;-60
2023/05/01 07:07:45;;;;;;;7.50;4.47;;;10.00;99.90;;;;;;4943317;28;20500;-60
2023/05/01 07:10:28;;;;;;;9.10;4.80;;;10.00;99.90;;;;;;4963132;28;20587;-61
2023/05/01 07:12:57;;;;;;;4.70;3.90;;;10.10;99.90;;;;;;4963091;28;20469;-62
2023/05/01 07:15:25;;;;;;;7.00;4.40;;;10.20;99.90;;;;;;4945728;28;20793;-60
2023/05/01 07:17:55;;;;;;;7.77;4.60;;;10.30;99.90;;;;;;4948090;28;20470;-60
2023/05/01 07:20:23;;;;;;;5.63;4.83;;;10.40;99.90;;;;;;4952991;28;20485;-59
2023/05/01 07:22:51;;;;;;;5.10;4.60;;;10.50;99.90;;;;;;4935281;28;20489;-60
2023/05/01 07:25:19;;;;;;;5.00;4.60;;;10.60;99.90;;;;;;4941952;28;20496;-59
2023/05/01 07:27:47;;;;;;;5.43;4.60;;;10.70;99.90;;;;;;4939379;28;20503;-59
2023/05/01 07:30:16;;;;;;;6.77;4.10;;;10.80;99.90;;;;;;4938790;28;20473;-61
2023/05/01 07:32:44;;;;;;;4.00;3.60;;;10.90;99.90;;;;;;4933698;28;20575;-60
2023/05/01 07:35:12;;;;;;;5.90;4.30;;;10.90;99.90;;;;;;4938516;28;21690;-60
2023/05/01 07:37:40;;;;;;;4.60;3.90;;;11.00;99.90;;;;;;4928218;28;20485;-60
2023/05/01 07:40:09;;;;;;;6.33;4.00;;;11.10;99.90;;;;;;4933087;28;20486;-59
2023/05/01 07:42:37;;;;;;;4.10;3.70;;;11.10;99.90;;;;;;4923044;28;20473;-59
2023/05/01 07:45:06;;;;;;;4.43;4.03;;;11.10;99.90;;;;;;4929579;28;21113;-59
2023/05/01 07:47:35;;;;;;;5.43;4.03;;;11.30;99.90;;;;;;4945295;28;20505;-60
2023/05/01 07:50:04;;;;;;;6.10;4.17;;;11.40;99.90;;;;;;4940676;28;20949;-60
2023/05/01 07:52:32;;;;;;;4.83;4.00;;;11.50;99.90;;;;;;4953315;28;20472;-60
2023/05/01 07:55:00;;;;;;;6.03;4.20;;;11.50;99.90;;;;;;4962263;28;20494;-60
2023/05/01 07:57:28;;;;;;;3.90;3.60;;;11.60;99.90;;;;;;4973597;28;20927;-60
2023/05/01 07:59:57;;;;;;;4.47;3.60;;;11.60;99.90;;;;;;4961411;28;20991;-60
2023/05/01 08:02:25;;;;;;;4.13;3.73;;;11.70;99.90;;;;;;4961059;28;20500;-60
2023/05/01 08:04:55;;;;;;;4.20;3.80;;;11.80;99.90;;;;;;4960718;28;20624;-59
2023/05/01 08:07:23;;;;;;;3.90;3.50;;;11.90;99.90;;;;;;4961597;28;20496;-60
2023/05/01 08:09:51;;;;;;;5.27;4.03;;;12.00;99.90;;;;;;4956858;28;20523;-59
2023/05/01 08:12:19;;;;;;;5.73;4.30;;;12.00;99.90;;;;;;4958385;28;20469;-59
2023/05/01 08:14:47;;;;;;;6.53;3.90;;;12.10;99.90;;;;;;4956415;28;20473;-59
2023/05/01 08:17:15;;;;;;;4.13;3.73;;;12.10;99.90;;;;;;4962380;28;20823;-60
2023/05/01 08:19:44;;;;;;;4.07;3.77;;;12.10;99.90;;;;;;4959723;28;20477;-60
2023/05/01 08:22:13;;;;;;;4.73;4.20;;;12.10;99.90;;;;;;4957730;28;20473;-60
2023/05/01 08:24:41;;;;;;;4.70;3.97;;;12.20;99.90;;;;;;4963826;28;20811;-61
2023/05/01 08:27:09;;;;;;;4.30;3.90;;;12.20;99.90;;;;;;4965953;28;20501;-60
2023/05/01 08:29:37;;;;;;;5.00;4.40;;;12.20;99.90;;;;;;4958698;28;20930;-61
2023/05/01 08:32:05;;;;;;;6.23;4.23;;;12.30;99.90;;;;;;4970871;28;21054;-61
2023/05/01 08:34:33;;;;;;;6.00;4.30;;;12.30;99.90;;;;;;4978093;28;20474;-60
2023/05/01 08:37:01;;;;;;;5.00;4.50;;;12.30;99.90;;;;;;4963278;28;20486;-60
2023/05/01 08:39:30;;;;;;;4.47;4.07;;;12.30;99.90;;;;;;4959246;28;20478;-60
2023/05/01 08:41:59;;;;;;;4.97;4.50;;;12.40;99.90;;;;;;4960018;28;20475;-60
2023/05/01 08:44:28;;;;;;;4.73;4.30;;;12.40;99.90;;;;;;4975743;28;20473;-61
2023/05/01 08:47:07;;;;;;;4.30;3.90;;;12.50;99.90;;;;;;4967691;28;20624;-60
2023/05/01 08:49:37;;;;;;;4.60;4.13;;;12.50;99.90;;;;;;4963806;28;20484;-61
2023/05/01 08:52:06;;;;;;;5.00;4.60;;;12.70;99.90;;;;;;4961791;28;20469;-61
2023/05/01 08:54:37;;;;;;;6.97;4.97;;;12.80;99.90;;;;;;4958068;28;20480;-60
2023/05/01 08:57:08;;;;;;;5.13;4.10;;;12.90;99.90;;;;;;4957054;28;20495;-60
2023/05/01 08:59:38;;;;;;;4.33;3.90;;;13.00;99.90;;;;;;4952250;28;20480;-60
2023/05/01 09:02:07;;;;;;;4.73;4.07;;;13.10;99.90;;;;;;4958153;28;20566;-62
2023/05/01 09:04:37;;;;;;;7.00;4.80;;;13.20;99.90;;;;;;4966878;28;20485;-60
2023/05/01 09:07:05;;;;;;;5.60;4.73;;;13.40;99.90;;;;;;4957734;28;20629;-61
2023/05/01 09:09:35;;;;;;;5.87;4.17;;;13.40;99.90;;;;;;4977383;28;20489;-61
2023/05/01 09:12:11;;;;;;;4.07;3.67;;;13.40;99.90;;;;;;4961070;28;20477;-61
2023/05/01 09:14:40;;;;;;;6.10;4.20;;;13.40;99.90;;;;;;4957629;28;20715;-60
2023/05/01 09:17:08;;;;;;;4.23;3.60;;;13.50;99.90;;;;;;4972817;28;21003;-61
2023/05/01 09:19:36;;;;;;;4.77;4.10;;;13.50;99.90;;;;;;4970897;28;22257;-62
2023/05/01 09:22:04;;;;;;;4.90;4.00;;;13.60;99.90;;;;;;4958771;28;21175;-60
2023/05/01 09:24:32;;;;;;;4.63;3.80;;;13.70;99.90;;;;;;4970155;28;20480;-61
2023/05/01 09:27:01;;;;;;;5.40;4.07;;;13.80;99.90;;;;;;4978192;28;20583;-60
2023/05/01 09:29:38;;;;;;;5.23;3.40;;;13.90;99.90;;;;;;4964181;28;20968;-60
2023/05/01 09:32:18;;;;;;;4.33;3.80;;;14.00;99.90;;;;;;4959091;28;20484;-62
2023/05/01 09:34:47;;;;;;;5.00;4.10;;;14.10;99.90;;;;;;4963683;28;21060;-62
2023/05/01 09:37:27;;;;;;;7.50;4.37;;;14.20;99.90;;;;;;4955913;28;20575;-59
2023/05/01 09:40:07;;;;;;;6.10;3.73;;;14.30;99.90;;;;;;4955465;28;20473;-62
2023/05/01 09:42:38;;;;;;;4.50;4.00;;;14.40;99.90;;;;;;4963925;28;20488;-62
2023/05/01 09:45:13;;;;;;;5.03;4.10;;;14.40;99.90;;;;;;4960159;28;20504;-60
2023/05/01 09:47:42;;;;;;;5.00;3.73;;;14.50;99.90;;;;;;4963004;28;20503;-62
2023/05/01 09:50:28;;;;;;;4.90;3.90;;;14.60;99.90;;;;;;4956295;28;20473;-60
2023/05/01 09:52:56;;;;;;;6.00;3.70;;;14.80;99.90;;;;;;4960358;28;20987;-62
2023/05/01 09:55:24;;;;;;;5.00;3.43;;;14.90;99.90;;;;;;4961447;28;20505;-62
2023/05/01 09:57:54;;;;;;;5.00;3.63;;;14.90;98.90;;;;;;4959637;28;20487;-62
2023/05/01 10:00:22;;;;;;;4.70;3.40;;;14.90;99.50;;;;;;4959840;28;20487;-63
2023/05/01 10:02:50;;;;;;;5.47;3.90;;;15.10;92.50;;;;;;4958779;28;20485;-61
2023/05/01 10:05:18;;;;;;;3.93;3.50;;;15.10;90.70;;;;;;4959232;28;21209;-62
2023/05/01 10:07:57;;;;;;;3.37;3.07;;;15.10;94.40;;;;;;4952641;28;21041;-60
2023/05/01 10:10:25;;;;;;;3.90;3.50;;;15.10;85.40;;;;;;4958123;28;20484;-62
2023/05/01 10:12:54;;;;;;;4.03;3.00;;;15.20;87.40;;;;;;4972059;28;20847;-61
2023/05/01 10:15:22;;;;;;;5.00;3.63;;;15.10;78.70;;;;;;4976539;28;20485;-63
2023/05/01 10:17:54;;;;;;;7.80;3.60;;;15.10;92.40;;;;;;4960439;28;20484;-63
2023/05/01 10:20:22;;;;;;;3.77;3.17;;;15.10;96.80;;;;;;4962062;28;20568;-61
2023/05/01 10:22:50;;;;;;;4.13;3.00;;;15.20;99.90;;;;;;4957083;28;20477;-61
2023/05/01 10:25:20;;;;;;;4.83;3.30;;;15.40;99.90;;;;;;4954183;28;21052;-61
2023/05/01 10:27:51;;;;;;;5.33;3.43;;;15.50;92.80;;;;;;4955514;28;21158;-61
2023/05/01 10:30:21;;;;;;;4.03;3.50;;;15.60;94.00;;;;;;4974630;28;20559;-61
2023/05/01 10:32:50;;;;;;;3.67;3.30;;;15.70;92.00;;;;;;4957578;28;20481;-63
2023/05/01 10:35:23;;;;;;;4.17;3.47;;;15.80;82.70;;;;;;4954473;28;20501;-64
2023/05/01 10:37:59;;;;;;;5.50;3.77;;;16.00;75.80;;;;;;4964271;28;20993;-62
2023/05/01 10:40:47;;;;;;;7.03;4.00;;;16.10;74.40;;;;;;4976321;28;20562;-62
2023/05/01 10:43:17;;;;;;;4.80;3.90;;;16.00;71.40;;;;;;4979658;28;20477;-62
2023/05/01 10:45:49;;;;;;;3.13;2.90;;;16.00;84.10;;;;;;4971108;28;20498;-60
2023/05/01 10:48:54;;;;;;;3.73;3.40;;;16.00;74.70;;;;;;4963538;28;20494;-62
2023/05/01 10:51:24;;;;;;;3.90;3.30;;;16.10;87.20;;;;;;4957337;28;20461;-61
2023/05/01 10:54:27;;;;;;;4.80;3.20;;;16.40;84.00;;;;;;4954387;28;20479;-63
2023/05/01 10:56:58;;;;;;;3.30;3.00;;;16.50;68.30;;;;;;4960573;28;20501;-62
2023/05/01 10:59:26;;;;;;;3.40;3.10;;;16.70;65.20;;;;;;4960405;28;20983;-62
2023/05/01 11:01:55;;;;;;;3.30;3.00;;;16.80;67.80;;;;;;4976810;28;20481;-61
2023/05/01 11:04:49;;;;;;;3.13;2.83;;;16.90;59.70;;;;;;4967064;28;20548;-60
2023/05/01 11:07:18;;;;;;;3.37;3.07;;;17.00;60.90;;;;;;4962008;28;20496;-62
2023/05/01 11:09:48;;;;;;;3.00;2.43;;;17.10;66.30;;;;;;4969568;28;21017;-61
2023/05/01 11:12:36;;;;;;;3.80;2.90;;;17.20;77.70;;;;;;4959822;28;20473;-61
2023/05/01 11:15:06;;;;;;;4.00;3.43;;;17.30;62.20;;;;;;4963401;28;20500;-61
2023/05/01 11:17:49;;;;;;;5.60;3.50;;;17.50;69.80;;;;;;4960332;28;21269;-61
2023/05/01 11:20:46;;;;;;;4.57;2.90;;;17.60;71.80;;;;;;4958899;28;20993;-61
2023/05/01 11:23:21;;;;;;;3.83;3.10;;;17.80;63.80;;;;;;4960635;28;21000;-60
2023/05/01 11:25:52;;;;;;;3.40;3.10;;;17.90;73.30;;;;;;4960632;28;22276;-62
2023/05/01 11:28:23;;;;;;;4.30;3.10;;;18.10;57.60;;;;;;4969936;28;21078;-61
2023/05/01 11:30:51;;;;;;;3.63;2.90;;;18.00;52.30;;;;;;4977486;28;20477;-61
2023/05/01 11:33:26;;;;;;;3.97;2.93;;;18.00;52.10;;;;;;4982790;28;20469;-61
2023/05/01 11:36:01;;;;;;;3.23;2.93;;;17.80;54.60;;;;;;4957367;28;20496;-61
2023/05/01 11:38:29;;;;;;;4.37;3.10;;;17.90;62.40;;;;;;4962445;28;20532;-61
2023/05/01 11:41:00;;;;;;;4.07;3.67;;;18.00;56.70;;;;;;4971500;28;20466;-61
2023/05/01 11:43:28;;;;;;;4.03;3.27;;;18.20;53.80;;;;;;4970228;28;20469;-60
2023/05/01 11:46:01;;;;;;;2.97;2.77;;;18.20;53.40;;;;;;4973788;28;20518;-61
2023/05/01 11:48:32;;;;;;;2.70;2.50;;;18.30;53.40;;;;;;4979586;28;20497;-60
2023/05/01 11:51:00;;;;;;;3.20;2.90;;;18.40;49.70;;;;;;4959515;28;21374;-61
2023/05/01 11:53:28;;;;;;;3.50;3.00;;;18.50;48.70;;;;;;4960023;28;20480;-61
2023/05/01 11:55:58;;;;;;;3.30;2.80;;;18.50;48.20;;;;;;4964031;28;20507;-61
2023/05/01 11:58:33;;;;;;;3.60;3.17;;;18.60;51.20;;;;;;4961113;28;20470;-60
2023/05/01 12:01:02;;;;;;;2.90;2.70;;;18.80;56.50;;;;;;4979115;28;20847;-61
2023/05/01 12:03:41;;;;;;;3.07;2.77;;;19.00;53.70;;;;;;4975226;28;20503;-61
2023/05/01 12:06:11;;;;;;;3.07;2.70;;;19.10;51.10;;;;;;4955735;28;20542;-61
2023/05/01 12:08:44;;;;;;;3.57;2.93;;;19.30;47.10;;;;;;4960384;28;21396;-60
2023/05/01 12:11:12;;;;;;;6.17;3.00;;;19.30;43.90;;;;;;4964084;28;20543;-60
2023/05/01 12:13:41;;;;;;;3.30;3.00;;;19.40;47.90;;;;;;4962488;28;20535;-60
2023/05/01 12:16:10;;;;;;;3.50;2.87;;;19.40;45.70;;;;;;4965105;28;20499;-60
2023/05/01 12:18:40;;;;;;;2.93;2.63;;;19.50;50.80;;;;;;4978295;28;20508;-61
2023/05/01 12:21:16;;;;;;;3.10;2.80;;;19.70;47.60;;;;;;4979471;28;21008;-60
2023/05/01 12:23:44;;;;;;;3.27;2.80;;;19.80;43.80;;;;;;4969049;28;20481;-61
2023/05/01 12:26:17;;;;;;;4.57;2.77;;;19.90;46.90;;;;;;4963993;28;20505;-61
2023/05/01 12:28:55;;;;;;;4.90;3.07;;;20.00;43.00;;;;;;4960114;28;20501;-61
2023/05/01 12:31:25;;;;;;;3.73;2.87;;;20.00;43.80;;;;;;4958460;28;20476;-61
2023/05/01 12:33:56;;;;;;;4.30;2.73;;;20.10;44.50;;;;;;4954563;28;20473;-59
2023/05/01 12:36:26;;;;;;;3.23;2.93;;;20.20;45.50;;;;;;4931699;28;21491;-60
2023/05/01 12:38:59;;;;;;;3.30;2.47;;;20.20;45.30;;;;;;4932391;28;21177;-59
2023/05/01 12:41:37;;;;;;;2.90;2.60;;;20.30;42.10;;;;;;4932148;28;20994;-60
2023/05/01 12:44:17;;;;;;;3.27;2.80;;;20.50;43.60;;;;;;4937292;28;20476;-62
2023/05/01 12:46:52;;;;;;;4.20;3.00;;;20.70;42.50;;;;;;4932962;28;20632;-60
2023/05/01 12:49:23;;;;;;;4.50;2.70;;;20.80;41.70;;;;;;4944298;28;20997;-61
2023/05/01 12:51:53;;;;;;;2.83;2.57;;;20.90;43.90;;;;;;4934061;28;20481;-60
2023/05/01 12:54:22;;;;;;;3.10;2.80;;;21.00;44.20;;;;;;4937119;28;20557;-60
2023/05/01 12:56:51;;;;;;;4.10;3.37;;;21.10;42.20;;;;;;4932561;28;21292;-62
2023/05/01 12:59:23;;;;;;;3.03;2.63;;;21.30;43.80;;;;;;4934267;28;20496;-65
2023/05/01 13:01:59;;;;;;;4.57;2.67;;;21.40;39.50;;;;;;4942267;28;20505;-58
2023/05/01 13:04:29;;;;;;;3.13;2.80;;;21.50;40.30;;;;;;4942820;28;20532;-60
2023/05/01 13:06:58;;;;;;;6.73;3.00;;;21.50;41.60;;;;;;4935579;28;20493;-63
2023/05/01 13:09:29;;;;;;;4.50;3.47;;;21.60;40.20;;;;;;4933338;28;20493;-63